createdAt,value
2019-03-16T00:00:15.170Z,60.98
2019-03-16T00:01:15.196Z,60.98
2019-03-16T00:02:15.156Z,61.08
2019-03-16T00:03:15.172Z,61.05
2019-03-16T00:04:15.128Z,61.29
2019-03-16T00:05:15.118Z,61.29
2019-03-16T00:06:15.104Z,60.77
2019-03-16T00:07:15.105Z,61.16
2019-03-16T00:08:15.076Z,61.08
2019-03-16T00:09:15.084Z,61.29
2019-03-16T00:10:15.054Z,61.08
2019-03-16T00:11:15.042Z,60.88
2019-03-16T00:12:15.040Z,61.08
2019-03-16T00:13:16.263Z,61.08
2019-03-16T00:14:15.015Z,61.40
2019-03-16T00:15:15.003Z,60.98
2019-03-16T00:16:14.988Z,60.98
2019-03-16T00:17:23.330Z,60.57
2019-03-16T00:18:15.980Z,61.08
2019-03-16T00:19:14.969Z,60.88
2019-03-16T00:20:14.945Z,60.98
2019-03-16T00:21:14.938Z,61.08
2019-03-16T00:22:14.922Z,61.08
2019-03-16T00:23:14.963Z,60.88
2019-03-16T00:24:14.896Z,61.08
2019-03-16T00:25:14.913Z,61.01
2019-03-16T00:26:14.875Z,61.73
2019-03-16T00:27:14.866Z,61.94
2019-03-16T00:28:14.852Z,61.52
2019-03-16T00:29:14.855Z,61.52
2019-03-16T00:30:14.840Z,61.63
2019-03-16T00:31:14.872Z,61.52
2019-03-16T00:32:14.855Z,61.63
2019-03-16T00:33:14.804Z,61.52
2019-03-16T00:34:14.786Z,61.94
2019-03-16T00:35:14.778Z,61.52
2019-03-16T00:36:14.767Z,61.73
2019-03-16T00:37:14.767Z,61.63
2019-03-16T00:38:14.774Z,62.15
2019-03-16T00:39:14.725Z,62.48
2019-03-16T00:40:14.715Z,62.59
2019-03-16T00:41:14.785Z,63.62
2019-03-16T00:42:14.691Z,62.04
2019-03-16T00:43:14.689Z,62.04
2019-03-16T00:44:14.682Z,62.07
2019-03-16T00:45:14.696Z,62.27
2019-03-16T00:46:14.656Z,61.83
2019-03-16T00:47:14.641Z,61.94
2019-03-16T00:48:14.633Z,62.48
2019-03-16T00:49:14.628Z,62.04
2019-03-16T00:50:14.613Z,62.27
2019-03-16T00:51:14.603Z,62.46
2019-03-16T00:52:14.606Z,62.15
2019-03-16T00:53:14.574Z,62.04
2019-03-16T00:54:14.559Z,62.15
2019-03-16T00:55:14.578Z,62.35
2019-03-16T00:56:14.560Z,62.59
2019-03-16T00:57:14.526Z,63.21
2019-03-16T00:58:14.524Z,63.34
2019-03-16T00:59:14.517Z,63.42
2019-03-16T01:00:14.501Z,63.51
2019-03-16T01:01:14.526Z,63.62
2019-03-16T01:02:26.542Z,64.14
2019-03-16T01:03:15.466Z,63.10
2019-03-16T01:04:14.456Z,63.62
2019-03-16T01:05:14.448Z,63.82
2019-03-16T01:06:14.481Z,63.10
2019-03-16T01:07:14.436Z,63.72
2019-03-16T01:08:14.412Z,63.62
2019-03-16T01:09:14.406Z,64.03
2019-03-16T01:10:14.391Z,63.62
2019-03-16T01:11:14.376Z,64.55
2019-03-16T01:12:14.381Z,64.34
2019-03-16T01:13:14.367Z,64.45
2019-03-16T01:14:14.342Z,64.14
2019-03-16T01:15:14.334Z,65.09
2019-03-16T01:16:14.342Z,65.20
2019-03-16T01:17:14.313Z,64.86
2019-03-16T01:18:14.298Z,64.99
2019-03-16T01:19:14.300Z,64.65
2019-03-16T01:20:14.296Z,65.51
2019-03-16T01:21:14.265Z,65.06
2019-03-16T01:22:14.266Z,65.06
2019-03-16T01:23:17.465Z,64.96
2019-03-16T01:24:14.237Z,64.86
2019-03-16T01:25:14.237Z,64.03
2019-03-16T01:26:14.210Z,64.86
2019-03-16T01:27:22.420Z,65.06
2019-03-16T01:28:14.197Z,64.65
2019-03-16T01:29:14.265Z,65.06
2019-03-16T01:30:14.182Z,65.06
2019-03-16T01:31:14.153Z,65.27
2019-03-16T01:32:14.146Z,64.96
2019-03-16T01:33:14.133Z,65.17
2019-03-16T01:34:14.136Z,64.76
2019-03-16T01:35:14.115Z,65.58
2019-03-16T01:36:14.099Z,66.00
2019-03-16T01:37:14.097Z,65.79
2019-03-16T01:38:14.079Z,65.58
2019-03-16T01:39:14.106Z,65.79
2019-03-16T01:40:14.057Z,65.69
2019-03-16T01:41:14.055Z,66.00
2019-03-16T01:42:14.037Z,66.20
2019-03-16T01:43:14.031Z,66.44
2019-03-16T01:44:14.019Z,66.20
2019-03-16T01:45:14.019Z,65.89
2019-03-16T01:46:13.991Z,65.79
2019-03-16T01:47:13.988Z,66.10
2019-03-16T01:48:13.977Z,65.58
2019-03-16T01:49:13.966Z,66.00
2019-03-16T01:50:13.962Z,65.89
2019-03-16T01:51:13.942Z,66.30
2019-03-16T01:52:13.932Z,66.33
2019-03-16T01:53:13.925Z,66.51
2019-03-16T01:54:13.905Z,65.89
2019-03-16T01:55:13.902Z,66.30
2019-03-16T01:56:13.892Z,66.00
2019-03-16T01:57:13.875Z,66.30
2019-03-16T01:58:13.869Z,65.89
2019-03-16T01:59:13.853Z,65.66
2019-03-16T02:00:13.847Z,65.58
2019-03-16T02:01:13.870Z,66.10
2019-03-16T02:02:13.815Z,66.20
2019-03-16T02:03:13.808Z,66.82
2019-03-16T02:04:13.802Z,66.61
2019-03-16T02:05:13.792Z,66.51
2019-03-16T02:06:13.772Z,66.30
2019-03-16T02:07:13.772Z,66.00
2019-03-16T02:08:13.754Z,65.89
2019-03-16T02:09:13.745Z,66.10
2019-03-16T02:10:13.738Z,66.61
2019-03-16T02:11:13.722Z,66.61
2019-03-16T02:12:13.708Z,66.41
2019-03-16T02:13:13.737Z,66.20
2019-03-16T02:14:13.697Z,66.61
2019-03-16T02:15:13.684Z,66.41
2019-03-16T02:16:13.664Z,66.00
2019-03-16T02:17:13.659Z,66.72
2019-03-16T02:18:13.646Z,66.61
2019-03-16T02:19:13.642Z,66.61
2019-03-16T02:20:13.626Z,66.75
2019-03-16T02:21:13.614Z,66.96
2019-03-16T02:22:13.642Z,66.72
2019-03-16T02:23:13.592Z,66.85
2019-03-16T02:24:13.580Z,66.82
2019-03-16T02:25:13.568Z,66.54
2019-03-16T02:26:13.563Z,66.96
2019-03-16T02:28:08.642Z,66.64
2019-03-16T02:29:08.624Z,66.30
2019-03-16T02:30:08.620Z,66.72
2019-03-16T02:31:08.602Z,66.23
2019-03-16T02:32:08.609Z,66.30
2019-03-16T02:33:13.196Z,65.48
2019-03-16T02:34:09.565Z,65.69
2019-03-16T02:35:08.552Z,66.30
2019-03-16T02:36:08.585Z,66.72
2019-03-16T02:37:08.535Z,66.85
2019-03-16T02:38:08.526Z,66.61
2019-03-16T02:39:08.539Z,66.64
2019-03-16T02:40:08.496Z,66.54
2019-03-16T02:41:08.491Z,66.13
2019-03-16T02:42:08.497Z,66.00
2019-03-16T02:43:08.472Z,65.89
2019-03-16T02:44:11.321Z,65.92
2019-03-16T02:45:08.468Z,65.89
2019-03-16T02:46:08.430Z,66.00
2019-03-16T02:47:08.430Z,66.23
2019-03-16T02:48:08.409Z,66.03
2019-03-16T02:49:08.405Z,66.54
2019-03-16T02:50:08.398Z,66.33
2019-03-16T02:51:08.394Z,66.03
2019-03-16T02:52:08.367Z,65.89
2019-03-16T02:53:08.353Z,66.75
2019-03-16T02:54:08.344Z,66.44
2019-03-16T02:55:08.380Z,66.23
2019-03-16T02:56:08.328Z,66.00
2019-03-16T02:57:08.314Z,66.44
2019-03-16T02:58:08.301Z,66.23
2019-03-16T02:59:08.293Z,66.44
2019-03-16T03:00:08.287Z,66.20
2019-03-16T03:01:08.280Z,66.54
2019-03-16T03:02:08.262Z,66.75
2019-03-16T03:03:08.248Z,66.44
2019-03-16T03:04:08.300Z,66.44
2019-03-16T03:05:08.222Z,66.20
2019-03-16T03:06:08.225Z,66.64
2019-03-16T03:07:08.235Z,66.85
2019-03-16T03:08:08.213Z,66.96
2019-03-16T03:09:08.180Z,66.85
2019-03-16T03:10:08.171Z,66.85
2019-03-16T03:11:08.163Z,66.85
2019-03-16T03:12:08.141Z,67.16
2019-03-16T03:13:08.144Z,67.27
2019-03-16T03:14:08.126Z,67.37
2019-03-16T03:15:08.147Z,67.40
2019-03-16T03:16:08.108Z,67.37
2019-03-16T03:17:08.097Z,67.37
2019-03-16T03:18:08.112Z,67.47
2019-03-16T03:19:08.074Z,67.99
2019-03-16T03:20:08.058Z,67.61
2019-03-16T03:21:08.042Z,67.37
2019-03-16T03:22:08.039Z,67.47
2019-03-16T03:23:08.026Z,67.37
2019-03-16T03:24:08.021Z,67.37
2019-03-16T03:25:08.005Z,68.02
2019-03-16T03:26:07.983Z,67.68
2019-03-16T03:27:07.980Z,67.37
2019-03-16T03:28:07.973Z,67.88
2019-03-16T03:29:07.963Z,67.71
2019-03-16T03:30:07.945Z,67.78
2019-03-16T03:31:07.982Z,67.88
2019-03-16T03:32:07.922Z,67.68
2019-03-16T03:33:07.911Z,67.91
2019-03-16T03:34:07.908Z,68.19
2019-03-16T03:35:07.891Z,68.54
2019-03-16T03:36:07.869Z,68.43
2019-03-16T03:37:07.867Z,68.23
2019-03-16T03:38:07.852Z,68.12
2019-03-16T03:39:07.846Z,67.99
2019-03-16T03:40:07.829Z,67.82
2019-03-16T03:41:07.824Z,68.54
2019-03-16T03:42:07.806Z,68.85
2019-03-16T03:43:07.795Z,68.74
2019-03-16T03:44:07.802Z,68.33
2019-03-16T03:45:07.778Z,68.02
2019-03-16T03:46:07.774Z,68.40
2019-03-16T03:47:07.747Z,68.64
2019-03-16T03:48:07.748Z,68.71
2019-03-16T03:49:07.725Z,69.06
2019-03-16T03:50:07.763Z,68.95
2019-03-16T03:51:07.714Z,69.57
2019-03-16T03:52:07.699Z,69.88
2019-03-16T03:53:07.684Z,69.78
2019-03-16T03:54:07.703Z,69.88
2019-03-16T03:55:07.689Z,70.09
2019-03-16T03:56:07.665Z,69.78
2019-03-16T03:57:07.662Z,70.19
2019-03-16T03:58:07.636Z,69.98
2019-03-16T03:59:07.624Z,70.01
2019-03-16T04:00:07.602Z,70.22
2019-03-16T04:01:07.609Z,71.05
2019-03-16T04:02:07.581Z,70.71
2019-03-16T04:03:07.582Z,70.40
2019-03-16T04:04:14.919Z,70.40
2019-03-16T04:05:08.553Z,69.78
2019-03-16T04:06:07.555Z,70.71
2019-03-16T04:07:07.533Z,70.81
2019-03-16T04:08:07.531Z,70.61
2019-03-16T04:09:07.522Z,70.40
2019-03-16T04:10:07.502Z,70.40
2019-03-16T04:11:07.505Z,70.19
2019-03-16T04:12:07.471Z,70.92
2019-03-16T04:13:07.463Z,70.61
2019-03-16T04:14:07.459Z,70.61
2019-03-16T04:15:07.446Z,70.61
2019-03-16T04:16:07.429Z,70.40
2019-03-16T04:17:07.440Z,70.29
2019-03-16T04:18:07.403Z,70.81
2019-03-16T04:19:07.399Z,70.81
2019-03-16T04:20:07.386Z,70.40
2019-03-16T04:21:07.377Z,70.19
2019-03-16T04:22:07.406Z,70.29
2019-03-16T04:23:07.350Z,70.29
2019-03-16T04:24:07.340Z,70.40
2019-03-16T04:25:07.343Z,70.40
2019-03-16T04:26:07.324Z,70.61
2019-03-16T04:27:15.638Z,70.61
2019-03-16T04:28:08.325Z,70.50
2019-03-16T04:29:07.292Z,71.22
2019-03-16T04:30:07.302Z,71.36
2019-03-16T04:31:07.277Z,71.36
2019-03-16T04:32:07.262Z,71.88
2019-03-16T04:33:07.254Z,71.67
2019-03-16T04:34:07.272Z,71.36
2019-03-16T04:35:07.228Z,71.36
2019-03-16T04:36:07.215Z,71.78
2019-03-16T04:37:07.202Z,72.08
2019-03-16T04:38:07.206Z,71.36
2019-03-16T04:39:07.224Z,71.43
2019-03-16T04:40:07.173Z,70.92
2019-03-16T04:41:07.164Z,71.36
2019-03-16T04:42:07.159Z,71.57
2019-03-16T04:43:07.136Z,71.26
2019-03-16T04:44:07.122Z,71.98
2019-03-16T04:45:07.115Z,71.36
2019-03-16T04:46:07.105Z,71.12
2019-03-16T04:47:07.107Z,71.39
2019-03-16T04:48:07.088Z,71.57
2019-03-16T04:49:07.077Z,71.57
2019-03-16T04:50:07.062Z,71.36
2019-03-16T04:51:07.046Z,71.57
2019-03-16T04:52:07.094Z,71.29
2019-03-16T04:53:07.051Z,71.70
2019-03-16T04:54:07.017Z,71.36
2019-03-16T04:55:07.011Z,71.88
2019-03-16T04:56:06.993Z,71.98
2019-03-16T04:57:06.987Z,71.67
2019-03-16T04:58:06.981Z,71.67
2019-03-16T04:59:06.962Z,71.57
2019-03-16T05:00:06.957Z,71.70
2019-03-16T05:01:06.948Z,71.91
2019-03-16T05:02:06.933Z,72.22
2019-03-16T05:03:08.548Z,72.22
2019-03-16T05:04:06.936Z,72.43
2019-03-16T05:05:06.904Z,72.53
2019-03-16T05:06:06.900Z,72.43
2019-03-16T05:07:06.881Z,73.15
2019-03-16T05:08:06.902Z,73.36
2019-03-16T05:09:06.857Z,72.53
2019-03-16T05:10:07.378Z,72.19
2019-03-16T05:11:06.834Z,71.88
2019-03-16T05:12:06.827Z,71.43
2019-03-16T05:13:06.809Z,72.08
2019-03-16T05:14:06.799Z,71.78
2019-03-16T05:15:06.822Z,71.78
2019-03-16T05:16:06.782Z,71.98
2019-03-16T05:17:06.775Z,71.88
2019-03-16T05:18:06.762Z,71.47
2019-03-16T05:19:06.783Z,71.98
2019-03-16T05:20:06.742Z,72.22
2019-03-16T05:21:06.727Z,71.88
2019-03-16T05:22:06.722Z,71.88
2019-03-16T05:23:06.706Z,71.78
2019-03-16T05:24:06.694Z,71.67
2019-03-16T05:25:06.691Z,71.57
2019-03-16T05:26:06.668Z,71.88
2019-03-16T05:27:06.657Z,71.67
2019-03-16T05:28:06.648Z,71.88
2019-03-16T05:29:06.647Z,71.47
2019-03-16T05:30:06.635Z,71.53
2019-03-16T05:31:06.622Z,71.78
2019-03-16T05:32:06.610Z,71.57
2019-03-16T05:33:06.593Z,71.78
2019-03-16T05:34:06.592Z,72.08
2019-03-16T05:35:06.597Z,72.50
2019-03-16T05:36:06.566Z,72.64
2019-03-16T05:37:06.567Z,72.19
2019-03-16T05:38:06.544Z,72.29
2019-03-16T05:39:06.537Z,71.53
2019-03-16T05:40:06.523Z,71.53
2019-03-16T05:41:06.508Z,71.64
2019-03-16T05:42:06.507Z,71.53
2019-03-16T05:43:06.487Z,71.64
2019-03-16T05:44:06.478Z,71.43
2019-03-16T05:45:06.465Z,71.53
2019-03-16T05:46:06.466Z,72.05
2019-03-16T05:47:06.454Z,71.64
2019-03-16T05:48:06.437Z,71.12
2019-03-16T05:49:06.422Z,71.33
2019-03-16T05:50:06.408Z,70.57
2019-03-16T05:51:06.437Z,70.78
2019-03-16T05:52:06.394Z,70.67
2019-03-16T05:53:06.385Z,70.67
2019-03-16T05:54:06.383Z,70.78
2019-03-16T05:55:06.363Z,70.37
2019-03-16T05:56:06.344Z,70.67
2019-03-16T05:57:06.348Z,70.16
2019-03-16T05:58:06.320Z,70.78
2019-03-16T05:59:06.310Z,70.78
2019-03-16T06:00:09.592Z,70.37
2019-03-16T06:01:06.299Z,70.37
2019-03-16T06:02:06.346Z,70.78
2019-03-16T06:03:06.276Z,70.50
2019-03-16T06:04:06.263Z,70.61
2019-03-16T06:05:10.978Z,70.61
2019-03-16T06:06:07.239Z,71.12
2019-03-16T06:07:06.228Z,70.50
2019-03-16T06:08:06.216Z,70.26
2019-03-16T06:09:06.195Z,70.16
2019-03-16T06:10:06.187Z,70.37
2019-03-16T06:11:06.194Z,70.37
2019-03-16T06:12:06.195Z,70.78
2019-03-16T06:13:06.194Z,69.61
2019-03-16T06:14:06.142Z,68.96
2019-03-16T06:15:06.132Z,68.85
2019-03-16T06:16:06.138Z,68.54
2019-03-16T06:17:06.104Z,68.51
2019-03-16T06:18:06.106Z,67.90
2019-03-16T06:19:06.088Z,67.90
2019-03-16T06:20:06.082Z,67.38
2019-03-16T06:21:06.064Z,68.00
2019-03-16T06:22:06.061Z,67.45
2019-03-16T06:23:06.045Z,67.24
2019-03-16T06:24:06.035Z,67.48
2019-03-16T06:25:06.024Z,67.27
2019-03-16T06:26:06.026Z,67.35
2019-03-16T06:27:06.047Z,67.48
2019-03-16T06:28:05.993Z,67.55
2019-03-16T06:29:05.977Z,67.45
2019-03-16T06:30:05.959Z,67.24
2019-03-16T06:31:05.979Z,67.90
2019-03-16T06:32:05.942Z,67.66
2019-03-16T06:33:05.926Z,67.45
2019-03-16T06:34:05.920Z,66.73
2019-03-16T06:35:05.906Z,67.24
2019-03-16T06:36:05.898Z,67.58
2019-03-16T06:37:05.898Z,67.90
2019-03-16T06:38:05.870Z,68.03
2019-03-16T06:39:05.866Z,68.85
2019-03-16T06:40:05.871Z,68.75
2019-03-16T06:41:05.865Z,68.75
2019-03-16T06:42:05.826Z,69.27
2019-03-16T06:43:05.820Z,69.37
2019-03-16T06:44:05.809Z,69.27
2019-03-16T06:45:05.805Z,68.54
2019-03-16T06:46:05.782Z,68.96
2019-03-16T06:47:05.771Z,68.72
2019-03-16T06:48:05.766Z,68.62
2019-03-16T06:49:05.824Z,68.93
2019-03-16T06:50:05.742Z,68.62
2019-03-16T06:51:05.738Z,69.13
2019-03-16T06:52:05.719Z,68.00
2019-03-16T06:53:05.713Z,68.51
2019-03-16T06:54:05.707Z,69.24
2019-03-16T06:55:05.690Z,68.00
2019-03-16T06:56:05.690Z,68.10
2019-03-16T06:57:05.664Z,68.30
2019-03-16T06:58:05.649Z,68.30
2019-03-16T06:59:05.677Z,67.90
2019-03-16T07:00:05.626Z,68.51
2019-03-16T07:01:05.624Z,68.62
2019-03-16T07:02:05.609Z,68.00
2019-03-16T07:03:05.604Z,67.45
2019-03-16T07:04:05.583Z,68.17
2019-03-16T07:05:05.588Z,67.55
2019-03-16T07:06:05.575Z,67.55
2019-03-16T07:07:05.587Z,67.38
2019-03-16T07:08:05.543Z,67.86
2019-03-16T07:09:05.534Z,67.66
2019-03-16T07:10:05.515Z,67.86
2019-03-16T07:11:05.513Z,67.66
2019-03-16T07:12:05.495Z,67.42
2019-03-16T07:13:05.503Z,67.45
2019-03-16T07:14:05.479Z,67.66
2019-03-16T07:15:05.463Z,67.55
2019-03-16T07:16:05.471Z,67.76
2019-03-16T07:17:05.461Z,67.63
2019-03-16T07:18:05.435Z,67.63
2019-03-16T07:19:05.418Z,67.42
2019-03-16T07:20:05.413Z,67.52
2019-03-16T07:21:05.397Z,67.73
2019-03-16T07:22:05.396Z,67.21
2019-03-16T07:23:05.372Z,67.21
2019-03-16T07:24:05.360Z,66.70
2019-03-16T07:25:05.354Z,67.11
2019-03-16T07:26:14.765Z,67.21
2019-03-16T07:27:06.358Z,67.42
2019-03-16T07:28:05.332Z,66.87
2019-03-16T07:29:05.310Z,66.77
2019-03-16T07:30:05.298Z,66.77
2019-03-16T07:31:05.289Z,66.56
2019-03-16T07:32:05.272Z,66.39
2019-03-16T07:33:05.271Z,66.67
2019-03-16T07:34:05.252Z,66.67
2019-03-16T07:35:05.244Z,66.87
2019-03-16T07:36:05.234Z,66.56
2019-03-16T07:37:05.229Z,66.36
2019-03-16T07:38:05.234Z,66.56
2019-03-16T07:39:05.204Z,66.67
2019-03-16T07:40:05.182Z,66.15
2019-03-16T07:41:05.172Z,65.81
2019-03-16T07:42:05.168Z,66.12
2019-03-16T07:43:05.152Z,65.95
2019-03-16T07:44:05.152Z,66.25
2019-03-16T07:45:08.415Z,66.56
2019-03-16T07:46:05.119Z,65.84
2019-03-16T07:47:05.118Z,66.22
2019-03-16T07:48:05.103Z,65.37
2019-03-16T07:49:05.089Z,65.78
2019-03-16T07:50:05.087Z,64.72
2019-03-16T07:51:05.067Z,64.72
2019-03-16T07:52:05.055Z,64.34
2019-03-16T07:53:05.053Z,65.26
2019-03-16T07:54:05.069Z,65.26
2019-03-16T07:55:05.024Z,65.06
2019-03-16T07:56:05.007Z,65.47
2019-03-16T07:57:05.022Z,65.61
2019-03-16T07:58:04.983Z,65.26
2019-03-16T07:59:04.973Z,65.61
2019-03-16T08:00:04.996Z,65.71
2019-03-16T08:01:04.956Z,65.71
2019-03-16T08:02:04.948Z,65.50
2019-03-16T08:03:04.931Z,65.81
2019-03-16T08:04:04.922Z,66.12
2019-03-16T08:05:17.343Z,65.58
2019-03-16T08:06:05.905Z,65.99
2019-03-16T08:07:04.887Z,65.40
2019-03-16T08:08:04.875Z,65.40
2019-03-16T08:09:04.966Z,65.81
2019-03-16T08:10:04.858Z,66.53
2019-03-16T08:11:04.964Z,65.81
2019-03-16T08:12:04.832Z,65.37
2019-03-16T08:13:04.829Z,65.50
2019-03-16T08:14:04.809Z,65.58
2019-03-16T08:15:04.807Z,64.65
2019-03-16T08:16:04.809Z,65.16
2019-03-16T08:17:04.785Z,64.96
2019-03-16T08:18:07.699Z,64.03
2019-03-16T08:19:04.760Z,64.11
2019-03-16T08:20:04.797Z,64.93
2019-03-16T08:21:04.738Z,64.28
2019-03-16T08:22:04.732Z,64.48
2019-03-16T08:23:04.710Z,63.79
2019-03-16T08:24:04.704Z,64.83
2019-03-16T08:25:04.689Z,65.00
2019-03-16T08:26:04.677Z,64.11
2019-03-16T08:27:07.414Z,64.69
2019-03-16T08:28:04.663Z,65.13
2019-03-16T08:29:04.658Z,64.69
2019-03-16T08:30:04.634Z,64.41
2019-03-16T08:31:04.621Z,63.59
2019-03-16T08:32:04.645Z,64.51
2019-03-16T08:33:04.598Z,63.79
2019-03-16T08:34:04.594Z,64.41
2019-03-16T08:35:04.577Z,63.72
2019-03-16T08:36:04.564Z,64.14
2019-03-16T08:37:04.559Z,63.79
2019-03-16T08:38:04.550Z,63.62
2019-03-16T08:39:04.530Z,63.39
2019-03-16T08:40:04.520Z,63.49
2019-03-16T08:41:04.515Z,63.69
2019-03-16T08:42:04.504Z,63.59
2019-03-16T08:43:04.590Z,62.63
2019-03-16T08:44:04.475Z,62.12
2019-03-16T08:45:04.466Z,63.07
2019-03-16T08:46:04.455Z,62.23
2019-03-16T08:47:04.441Z,62.43
2019-03-16T08:48:04.430Z,62.30
2019-03-16T08:49:04.430Z,61.09
2019-03-16T08:50:04.414Z,62.09
2019-03-16T08:51:04.414Z,61.30
2019-03-16T08:52:04.427Z,61.51
2019-03-16T08:53:04.378Z,61.33
2019-03-16T08:54:04.368Z,61.33
2019-03-16T08:55:04.355Z,61.63
2019-03-16T08:56:04.336Z,62.12
2019-03-16T08:57:04.329Z,60.81
2019-03-16T08:58:06.251Z,61.77
2019-03-16T08:59:04.339Z,61.53
2019-03-16T09:00:04.296Z,61.51
2019-03-16T09:01:04.281Z,60.68
2019-03-16T09:02:04.276Z,60.78
2019-03-16T09:03:04.255Z,60.99
2019-03-16T09:04:04.245Z,60.55
2019-03-16T09:05:04.280Z,60.86
2019-03-16T09:06:04.227Z,60.06
2019-03-16T09:07:04.220Z,60.24
2019-03-16T09:08:04.195Z,60.86
2019-03-16T09:09:04.189Z,59.31
2019-03-16T09:10:04.182Z,59.59
2019-03-16T09:11:04.201Z,59.63
2019-03-16T09:12:04.157Z,59.42
2019-03-16T09:13:04.152Z,59.75
2019-03-16T09:14:04.150Z,59.34
2019-03-16T09:15:04.122Z,60.06
2019-03-16T09:16:04.148Z,59.83
2019-03-16T09:17:04.107Z,60.86
2019-03-16T09:18:04.092Z,61.04
2019-03-16T09:19:04.080Z,59.80
2019-03-16T09:20:04.059Z,58.87
2019-03-16T09:21:04.053Z,59.39
2019-03-16T09:22:04.180Z,59.57
2019-03-16T09:23:04.043Z,58.54
2019-03-16T09:24:04.014Z,59.59
2019-03-16T09:25:04.005Z,59.57
2019-03-16T09:26:03.997Z,58.87
2019-03-16T09:27:03.986Z,59.52
2019-03-16T09:28:04.005Z,59.83
2019-03-16T09:29:14.518Z,59.73
2019-03-16T09:30:04.947Z,59.59
2019-03-16T09:31:03.937Z,59.70
2019-03-16T09:32:03.939Z,59.36
2019-03-16T09:33:03.976Z,58.98
2019-03-16T09:34:03.906Z,59.59
2019-03-16T09:35:03.896Z,58.78
2019-03-16T09:36:03.910Z,59.59
2019-03-16T09:37:03.879Z,59.88
2019-03-16T09:38:05.262Z,58.13
2019-03-16T09:39:03.853Z,58.13
2019-03-16T09:40:03.851Z,59.06
2019-03-16T09:41:03.835Z,59.57
2019-03-16T09:42:03.845Z,58.41
2019-03-16T09:43:03.803Z,57.36
2019-03-16T09:44:03.802Z,58.41
2019-03-16T09:45:03.786Z,58.92
2019-03-16T09:46:03.777Z,59.13
2019-03-16T09:47:03.770Z,57.98
2019-03-16T09:48:03.761Z,58.41
2019-03-16T09:49:03.851Z,58.51
2019-03-16T09:50:03.731Z,58.23
2019-03-16T09:51:03.723Z,59.50
2019-03-16T09:52:03.713Z,59.16
2019-03-16T09:53:03.705Z,59.13
2019-03-16T09:54:03.681Z,58.11
2019-03-16T09:55:03.677Z,59.16
2019-03-16T09:56:03.886Z,58.85
2019-03-16T09:57:03.662Z,58.85
2019-03-16T09:58:03.645Z,59.29
2019-03-16T09:59:03.741Z,59.67
2019-03-16T10:00:03.616Z,59.06
2019-03-16T10:01:03.607Z,58.03
2019-03-16T10:02:03.603Z,57.90
2019-03-16T10:03:03.585Z,59.54
2019-03-16T10:04:03.577Z,58.83
2019-03-16T10:05:03.584Z,59.00
2019-03-16T10:06:03.658Z,58.80
2019-03-16T10:07:03.541Z,57.87
2019-03-16T10:08:03.612Z,58.80
2019-03-16T10:09:03.575Z,58.07
2019-03-16T10:10:03.600Z,56.30
2019-03-16T10:11:03.506Z,56.71
2019-03-16T10:12:03.485Z,56.64
2019-03-16T10:13:03.476Z,56.77
2019-03-16T10:14:03.466Z,57.39
2019-03-16T10:15:03.457Z,57.82
2019-03-16T10:16:03.450Z,58.34
2019-03-16T10:17:03.428Z,58.21
2019-03-16T10:18:03.415Z,58.51
2019-03-16T10:19:03.422Z,58.31
2019-03-16T10:20:03.390Z,58.18
2019-03-16T10:21:03.395Z,58.28
2019-03-16T10:22:03.373Z,56.74
2019-03-16T10:23:03.390Z,58.39
2019-03-16T10:24:03.350Z,58.49
2019-03-16T10:25:03.343Z,57.36
2019-03-16T10:26:03.366Z,57.28
2019-03-16T10:27:03.323Z,57.77
2019-03-16T10:28:03.307Z,57.18
2019-03-16T10:29:03.307Z,58.31
2019-03-16T10:30:03.278Z,57.39
2019-03-16T10:31:03.284Z,57.18
2019-03-16T10:32:03.272Z,56.67
2019-03-16T10:33:03.261Z,56.05
2019-03-16T10:34:03.238Z,56.26
2019-03-16T10:35:03.228Z,56.15
2019-03-16T10:36:03.217Z,56.18
2019-03-16T10:37:03.219Z,56.26
2019-03-16T10:38:03.193Z,56.18
2019-03-16T10:39:03.204Z,56.38
2019-03-16T10:40:03.176Z,56.77
2019-03-16T10:41:03.159Z,56.05
2019-03-16T10:42:03.158Z,55.92
2019-03-16T10:43:03.150Z,55.95
2019-03-16T10:44:03.122Z,56.56
2019-03-16T10:45:03.122Z,56.13
2019-03-16T10:46:03.103Z,55.95
2019-03-16T10:47:03.112Z,56.34
2019-03-16T10:48:03.089Z,55.82
2019-03-16T10:49:03.096Z,56.15
2019-03-16T10:50:03.061Z,55.87
2019-03-16T10:51:03.049Z,56.56
2019-03-16T10:52:03.033Z,56.13
2019-03-16T10:53:03.048Z,55.72
2019-03-16T10:54:03.020Z,56.02
2019-03-16T10:55:02.999Z,56.02
2019-03-16T10:56:02.999Z,55.74
2019-03-16T10:57:04.356Z,56.46
2019-03-16T10:58:02.975Z,56.23
2019-03-16T10:59:03.002Z,56.23
2019-03-16T11:00:02.945Z,55.54
2019-03-16T11:01:02.935Z,56.87
2019-03-16T11:02:02.942Z,56.54
2019-03-16T11:03:02.916Z,56.02
2019-03-16T11:04:02.902Z,56.02
2019-03-16T11:05:02.990Z,56.15
2019-03-16T11:06:02.885Z,56.05
2019-03-16T11:07:02.874Z,56.15
2019-03-16T11:08:02.861Z,55.85
2019-03-16T11:09:02.854Z,55.74
2019-03-16T11:10:02.846Z,54.92
2019-03-16T11:11:02.826Z,55.23
2019-03-16T11:12:02.844Z,56.05
2019-03-16T11:13:02.811Z,56.18
2019-03-16T11:14:02.793Z,55.66
2019-03-16T11:15:02.796Z,55.38
2019-03-16T11:16:02.775Z,56.28
2019-03-16T11:17:02.754Z,56.08
2019-03-16T11:18:02.748Z,56.59
2019-03-16T11:19:02.731Z,57.41
2019-03-16T11:20:02.737Z,56.36
2019-03-16T11:21:02.708Z,56.15
2019-03-16T11:22:02.706Z,56.05
2019-03-16T11:23:02.696Z,55.74
2019-03-16T11:24:02.685Z,55.87
2019-03-16T11:25:02.688Z,56.93
2019-03-16T11:26:02.665Z,57.54
2019-03-16T11:27:02.640Z,56.82
2019-03-16T11:28:02.634Z,56.95
2019-03-16T11:29:09.087Z,56.74
2019-03-16T11:30:03.722Z,57.18
2019-03-16T11:31:02.595Z,57.90
2019-03-16T11:32:02.589Z,58.11
2019-03-16T11:33:02.582Z,57.50
2019-03-16T11:34:02.563Z,58.11
2019-03-16T11:35:02.562Z,57.80
2019-03-16T11:36:02.540Z,58.14
2019-03-16T11:37:02.544Z,57.93
2019-03-16T11:38:02.550Z,59.37
2019-03-16T11:39:02.510Z,57.93
2019-03-16T11:40:02.495Z,58.45
2019-03-16T11:41:02.502Z,58.26
2019-03-16T11:42:02.475Z,59.19
2019-03-16T11:43:02.500Z,60.33
2019-03-16T11:44:02.457Z,59.84
2019-03-16T11:45:02.455Z,62.49
2019-03-16T11:46:02.431Z,61.18
2019-03-16T11:47:02.425Z,62.13
2019-03-16T11:48:02.413Z,61.61
2019-03-16T11:49:02.400Z,64.71
2019-03-16T11:50:02.386Z,63.37
2019-03-16T11:51:02.380Z,62.13
2019-03-16T11:52:02.364Z,64.09
2019-03-16T11:53:02.355Z,63.17
2019-03-16T11:54:02.377Z,64.02
2019-03-16T11:55:02.332Z,64.92
2019-03-16T11:56:02.324Z,66.49
2019-03-16T11:57:02.309Z,68.66
2019-03-16T11:58:02.309Z,70.20
2019-03-16T11:59:02.289Z,71.47
2019-03-16T12:00:02.311Z,72.71
2019-03-16T12:01:02.347Z,74.29
2019-03-16T12:02:05.497Z,75.91
2019-03-16T12:03:02.247Z,77.22
2019-03-16T12:04:02.250Z,77.87
2019-03-16T12:05:02.227Z,79.42
2019-03-16T12:06:02.218Z,79.52
2019-03-16T12:07:02.198Z,81.28
2019-03-16T12:08:02.193Z,80.15
2019-03-16T12:09:02.180Z,81.59
2019-03-16T12:10:02.180Z,81.38
2019-03-16T12:11:02.159Z,81.38
2019-03-16T12:12:02.144Z,81.52
2019-03-16T12:13:02.149Z,81.18
2019-03-16T12:14:02.149Z,81.52
2019-03-16T12:15:02.111Z,81.94
2019-03-16T12:16:02.103Z,83.18
2019-03-16T12:17:02.094Z,83.28
2019-03-16T12:18:02.093Z,83.18
2019-03-16T12:19:02.087Z,83.32
2019-03-16T12:20:02.059Z,83.73
2019-03-16T12:21:02.050Z,84.45
2019-03-16T12:22:02.031Z,84.45
2019-03-16T12:23:02.053Z,85.22
2019-03-16T12:24:02.015Z,85.70
2019-03-16T12:25:01.998Z,86.21
2019-03-16T12:26:01.994Z,86.32
2019-03-16T12:27:01.989Z,85.49
2019-03-16T12:28:01.975Z,86.01
2019-03-16T12:29:02.062Z,86.73
2019-03-16T12:30:01.946Z,86.42
2019-03-16T12:31:01.929Z,86.11
2019-03-16T12:32:01.918Z,86.21
2019-03-16T12:33:01.910Z,86.57
2019-03-16T12:34:01.936Z,87.49
2019-03-16T12:35:01.892Z,87.56
2019-03-16T12:36:01.875Z,88.07
2019-03-16T12:37:01.892Z,88.28
2019-03-16T12:38:01.856Z,87.04
2019-03-16T12:39:01.846Z,86.77
2019-03-16T12:40:01.839Z,87.04
2019-03-16T12:41:01.827Z,87.66
2019-03-16T12:42:01.811Z,87.04
2019-03-16T12:43:01.799Z,87.46
2019-03-16T12:44:01.790Z,87.66
2019-03-16T12:45:01.803Z,86.11
2019-03-16T12:46:01.760Z,87.25
2019-03-16T12:47:01.750Z,85.94
2019-03-16T12:48:01.736Z,85.91
2019-03-16T12:49:01.725Z,86.46
2019-03-16T12:50:01.720Z,85.84
2019-03-16T12:51:01.720Z,86.01
2019-03-16T12:52:01.698Z,86.15
2019-03-16T12:53:01.688Z,87.18